Time;durP1;ratioP1;P1;durP2;ratioP2;P2;SDS_P1;SDS_P2;PMS_P1;PMS_P2;Temp;Humidity;BMP_temperature;BMP_pressure;BME280_temperature;BME280_humidity;BME280_pressure;Samples;Min_cycle;Max_cycle;Signal;HPM_P1;HPM_P2
2021/12/21 00:00:35;;;;;;;16.80;5.63;;;;;;;-6.50;89.56;98191.03;5047075;28;20049;-60
2021/12/21 00:03:01;;;;;;;11.95;5.40;;;;;;;-6.61;89.56;98179.53;5031567;28;20547;-60
2021/12/21 00:05:29;;;;;;;11.30;5.90;;;;;;;-6.49;89.62;98180.34;5026774;28;20064;-60
2021/12/21 00:07:59;;;;;;;19.10;6.15;;;;;;;-6.56;90.02;98177.38;5031680;28;20053;-60
2021/12/21 00:10:28;;;;;;;15.70;5.45;;;;;;;-6.54;89.45;98171.97;5035664;28;20041;-59
2021/12/21 00:15:41;;;;;;;12.15;6.03;;;;;;;-6.64;89.02;98168.41;5034360;28;20037;-60
2021/12/21 00:25:56;;;;;;;10.02;5.63;;;;;;;-6.48;90.39;98168.88;5037535;28;20044;-59
2021/12/21 00:28:24;;;;;;;10.10;4.88;;;;;;;-6.41;89.84;98158.66;5046252;28;20039;-60
2021/12/21 00:30:51;;;;;;;17.98;5.32;;;;;;;-6.45;89.58;98155.41;5041913;28;20075;-60
2021/12/21 00:33:18;;;;;;;14.85;5.78;;;;;;;-6.51;90.24;98165.63;5044123;28;20642;-61
2021/12/21 00:35:45;;;;;;;13.95;5.18;;;;;;;-6.67;89.05;98157.16;5024460;28;20037;-60
2021/12/21 00:38:12;;;;;;;11.27;4.80;;;;;;;-6.60;90.10;98159.31;5025610;28;20041;-61
2021/12/21 00:40:39;;;;;;;13.32;5.22;;;;;;;-6.71;88.82;98157.53;5032579;28;20037;-61
2021/12/21 00:43:05;;;;;;;13.52;4.85;;;;;;;-6.73;89.23;98146.28;5038942;28;20048;-59
2021/12/21 00:45:32;;;;;;;10.88;4.68;;;;;;;-6.79;88.98;98147.59;5036202;28;20562;-60
2021/12/21 00:47:59;;;;;;;11.68;5.20;;;;;;;-6.84;88.79;98147.13;5025020;28;20068;-59
2021/12/21 00:50:26;;;;;;;9.00;4.10;;;;;;;-6.83;89.49;98140.88;5033543;28;20136;-59
2021/12/21 00:52:53;;;;;;;9.65;4.38;;;;;;;-6.86;89.39;98139.34;5043298;28;20041;-59
2021/12/21 00:55:21;;;;;;;14.05;5.63;;;;;;;-6.77;89.94;98137.78;5039904;28;20057;-59
2021/12/21 00:57:48;;;;;;;12.27;6.15;;;;;;;-6.57;89.88;98132.69;5036125;28;20647;-60
2021/12/21 01:00:18;;;;;;;18.45;6.18;;;;;;;-6.74;88.76;98137.56;5026844;28;20049;-60
2021/12/21 01:02:45;;;;;;;15.95;6.20;;;;;;;-6.83;89.00;98141.75;5029744;28;20065;-60
2021/12/21 01:05:37;;;;;;;11.77;5.05;;;;;;;-6.75;89.52;98137.66;5030015;28;20051;-60
2021/12/21 01:08:05;;;;;;;10.45;4.50;;;;;;;-6.74;89.51;98137.56;5035768;28;20049;-60
2021/12/21 01:13:40;;;;;;;15.23;6.55;;;;;;;-6.93;89.39;98131.09;5031932;28;20122;-59
2021/12/21 01:19:00;;;;;;;17.55;6.00;;;;;;;-6.97;89.20;98120.94;5034742;28;20524;-61
2021/12/21 01:21:32;;;;;;;13.13;5.35;;;;;;;-6.94;89.42;98126.78;5038026;28;20523;-60
2021/12/21 01:24:13;;;;;;;14.18;5.88;;;;;;;-6.85;89.41;98129.66;5044251;28;20041;-60
2021/12/21 01:34:32;;;;;;;16.42;6.25;;;;;;;-6.97;89.17;98134.94;5029109;28;20098;-60
2021/12/21 01:37:28;;;;;;;18.88;6.15;;;;;;;-6.95;88.88;98129.53;5024462;28;20436;-59
2021/12/21 01:50:09;;;;;;;20.38;5.30;;;;;;;-6.82;88.39;98124.97;5026446;28;20049;-58
2021/12/21 01:52:36;;;;;;;17.80;5.70;;;;;;;-6.89;88.53;98126.44;5035724;28;20041;-59
2021/12/21 01:55:03;;;;;;;13.48;5.70;;;;;;;-6.98;88.38;98127.16;5025639;28;20049;-59
2021/12/21 01:57:30;;;;;;;17.70;7.57;;;;;;;-6.75;89.75;98125.31;5043991;28;20100;-60
2021/12/21 01:59:56;;;;;;;10.43;5.47;;;;;;;-7.01;87.31;98133.50;5042781;28;20045;-59
2021/12/21 02:02:23;;;;;;;15.80;5.47;;;;;;;-7.10;87.32;98121.06;5024798;28;20512;-60
2021/12/21 02:04:50;;;;;;;11.65;5.05;;;;;;;-7.08;87.98;98121.78;5033213;28;20069;-58
2021/12/21 02:07:17;;;;;;;15.02;5.47;;;;;;;-7.12;88.92;98120.38;5024915;28;20056;-60
2021/12/21 02:09:44;;;;;;;12.23;5.28;;;;;;;-7.12;88.67;98123.00;5036972;28;20061;-59
2021/12/21 02:12:16;;;;;;;14.00;4.95;;;;;;;-7.11;88.78;98122.03;5023592;28;20042;-60
2021/12/21 02:14:52;;;;;;;14.85;5.38;;;;;;;-6.92;89.28;98116.97;5026185;28;20040;-60
2021/12/21 02:17:44;;;;;;;13.05;5.85;;;;;;;-7.08;88.53;98119.97;5023158;28;20048;-60
2021/12/21 02:20:37;;;;;;;12.68;5.57;;;;;;;-7.09;88.46;98112.19;5015081;28;20485;-60
2021/12/21 02:23:12;;;;;;;11.93;4.70;;;;;;;-7.26;88.13;98113.53;5029729;28;20041;-59
2021/12/21 02:25:59;;;;;;;19.70;5.82;;;;;;;-7.32;88.39;98112.22;5026835;28;20041;-60
2021/12/21 02:30:55;;;;;;;8.38;3.60;;;;;;;-7.16;89.46;98116.28;5039362;28;20041;-59
2021/12/21 02:33:24;;;;;;;9.70;4.72;;;;;;;-7.06;89.12;98117.22;5030091;28;20045;-60
2021/12/21 02:35:52;;;;;;;7.38;4.22;;;;;;;-6.99;88.46;98107.91;5038349;28;20462;-60
2021/12/21 02:38:19;;;;;;;10.05;4.22;;;;;;;-6.80;88.20;98114.31;5046857;28;20064;-58
2021/12/21 02:40:46;;;;;;;14.20;4.07;;;;;;;-6.76;87.70;98105.22;5037632;28;20053;-58
2021/12/21 02:43:13;;;;;;;12.25;5.07;;;;;;;-6.84;87.81;98103.22;5048430;28;20051;-60
2021/12/21 02:45:42;;;;;;;9.85;4.28;;;;;;;-6.90;88.57;98100.22;5035743;28;20037;-59
2021/12/21 02:48:09;;;;;;;17.08;4.75;;;;;;;-6.95;88.38;98108.47;5045114;28;20049;-59
2021/12/21 02:50:38;;;;;;;14.45;6.50;;;;;;;-6.88;88.23;98104.41;5033940;28;20037;-59
2021/12/21 02:53:05;;;;;;;7.93;3.95;;;;;;;-6.87;88.24;98103.44;5034348;28;20049;-59
2021/12/21 02:55:32;;;;;;;14.85;4.68;;;;;;;-7.00;87.99;98103.59;5032968;28;20040;-59
2021/12/21 02:57:59;;;;;;;8.75;4.40;;;;;;;-7.10;88.44;98102.63;5047308;28;20051;-60
2021/12/21 03:00:27;;;;;;;9.30;4.60;;;;;;;-7.10;87.71;98105.28;5028538;28;20103;-58
2021/12/21 03:02:55;;;;;;;12.40;4.65;;;;;;;-7.03;87.91;98098.56;5030488;28;20041;-57
2021/12/21 03:05:22;;;;;;;11.88;4.28;;;;;;;-7.14;88.18;98109.94;5043486;28;21035;-59
2021/12/21 03:10:26;;;;;;;7.00;3.75;;;;;;;-7.09;88.14;98102.53;5035481;28;20064;-60
2021/12/21 03:15:20;;;;;;;7.82;3.63;;;;;;;-7.06;87.50;98110.19;5027627;28;20087;-59
2021/12/21 03:17:47;;;;;;;8.80;3.63;;;;;;;-7.10;87.99;98106.13;5037630;28;20670;-60
2021/12/21 03:20:14;;;;;;;9.10;4.32;;;;;;;-6.99;87.90;98109.69;5036339;28;20548;-60
2021/12/21 03:22:41;;;;;;;11.95;3.83;;;;;;;-7.00;86.69;98103.59;5036036;28;20045;-60
2021/12/21 03:25:08;;;;;;;7.90;3.47;;;;;;;-6.99;87.31;98102.63;5035757;28;20037;-58
2021/12/21 03:27:34;;;;;;;12.95;4.93;;;;;;;-6.95;87.38;98104.06;5043080;28;20041;-59
2021/12/21 03:30:02;;;;;;;9.35;3.22;;;;;;;-6.97;86.84;98098.06;5047210;28;20067;-59
2021/12/21 03:32:28;;;;;;;9.88;4.40;;;;;;;-7.07;87.34;98108.47;5027869;28;20670;-60
2021/12/21 03:34:55;;;;;;;9.38;3.30;;;;;;;-7.07;87.02;98105.03;5031398;28;20052;-60
2021/12/21 03:37:21;;;;;;;16.13;4.53;;;;;;;-6.97;87.46;98108.59;5027932;28;20107;-58
2021/12/21 03:39:50;;;;;;;14.68;4.80;;;;;;;-7.10;87.50;98100.84;5030314;28;20475;-58
2021/12/21 03:42:17;;;;;;;11.90;5.13;;;;;;;-7.23;86.70;98100.97;5028069;28;20049;-61
2021/12/21 03:44:43;;;;;;;11.10;4.60;;;;;;;-7.32;87.49;98099.06;5034082;28;20052;-59
2021/12/21 03:47:11;;;;;;;8.40;3.85;;;;;;;-7.36;87.43;98101.13;5027216;28;20528;-57
2021/12/21 03:49:53;;;;;;;11.25;4.22;;;;;;;-7.33;87.71;98105.28;5042870;28;20045;-58
2021/12/21 03:52:22;;;;;;;15.77;4.65;;;;;;;-7.40;87.36;98099.69;5026416;28;20057;-56
2021/12/21 03:54:53;;;;;;;7.22;3.78;;;;;;;-7.21;88.24;98101.69;5028377;28;20050;-57
2021/12/21 03:57:19;;;;;;;10.43;4.57;;;;;;;-7.07;87.59;98100.59;5032945;28;20041;-57
2021/12/21 03:59:48;;;;;;;12.32;4.30;;;;;;;-7.06;87.77;98101.44;5043388;28;20182;-58
2021/12/21 04:02:16;;;;;;;8.73;4.32;;;;;;;-6.97;86.80;98098.06;5041469;28;20665;-59
2021/12/21 04:04:43;;;;;;;14.35;3.70;;;;;;;-7.15;85.49;98107.44;5027370;28;20045;-59
2021/12/21 04:07:10;;;;;;;9.23;4.22;;;;;;;-7.40;86.65;98098.81;5030838;28;20036;-58
2021/12/21 04:09:38;;;;;;;10.15;4.22;;;;;;;-7.46;86.86;98093.09;5026320;28;20056;-58
2021/12/21 04:12:05;;;;;;;9.90;4.53;;;;;;;-7.52;87.70;98100.63;5029115;28;20111;-56
2021/12/21 04:14:33;;;;;;;15.57;5.38;;;;;;;-7.61;87.78;98089.00;5034456;28;20625;-58
2021/12/21 04:16:59;;;;;;;9.43;4.53;;;;;;;-7.41;88.40;98102.41;5038840;28;20463;-58
2021/12/21 04:19:26;;;;;;;13.18;4.95;;;;;;;-7.36;87.88;98101.13;5035828;28;20049;-57
2021/12/21 04:21:53;;;;;;;13.60;4.60;;;;;;;-7.31;87.62;98100.72;5030488;28;20049;-57
2021/12/21 04:24:20;;;;;;;9.25;4.88;;;;;;;-7.35;87.13;98101.94;5025623;28;20524;-57
2021/12/21 04:26:47;;;;;;;15.05;4.40;;;;;;;-7.47;87.53;98104.56;5036242;28;20041;-58
2021/12/21 04:29:14;;;;;;;11.07;4.03;;;;;;;-7.51;87.59;98097.88;5043413;28;20052;-58
2021/12/21 04:31:41;;;;;;;9.15;4.88;;;;;;;-7.51;87.76;98097.03;5036473;28;20444;-57
2021/12/21 04:34:07;;;;;;;9.60;4.70;;;;;;;-7.64;87.17;98094.50;5025839;28;20052;-57
2021/12/21 04:36:34;;;;;;;8.82;4.07;;;;;;;-7.62;87.86;98096.09;5043918;28;20041;-58
2021/12/21 04:39:04;;;;;;;10.75;4.43;;;;;;;-7.49;87.88;98098.59;5045908;28;20041;-59
2021/12/21 04:41:31;;;;;;;9.57;4.80;;;;;;;-7.43;87.84;98094.63;5028915;28;20072;-57
2021/12/21 04:43:59;;;;;;;11.15;4.60;;;;;;;-7.49;86.59;98100.41;5033478;28;20407;-58
2021/12/21 04:46:27;;;;;;;9.25;4.55;;;;;;;-7.54;87.07;98092.84;5036405;28;20037;-58
2021/12/21 04:48:54;;;;;;;8.70;4.60;;;;;;;-7.61;87.43;98094.25;5026394;28;20072;-58
2021/12/21 04:51:21;;;;;;;10.00;4.10;;;;;;;-7.70;87.78;98101.91;5029962;28;20677;-61
2021/12/21 04:53:48;;;;;;;12.25;4.47;;;;;;;-7.59;87.56;98089.75;5027408;28;20191;-60
2021/12/21 04:56:15;;;;;;;9.52;5.15;;;;;;;-7.60;87.53;98085.41;5032213;28;20045;-59
2021/12/21 04:58:42;;;;;;;11.73;4.28;;;;;;;-7.59;87.31;98085.31;5029597;28;20057;-59
2021/12/21 05:01:08;;;;;;;8.02;4.10;;;;;;;-7.64;86.94;98081.34;5027508;28;20098;-59
2021/12/21 05:03:35;;;;;;;10.52;4.57;;;;;;;-7.73;86.96;98083.75;5026355;28;20045;-59
2021/12/21 05:06:02;;;;;;;13.25;5.18;;;;;;;-7.85;87.30;98092.59;5037878;28;20400;-59
2021/12/21 05:08:37;;;;;;;8.32;3.95;;;;;;;-7.89;85.82;98083.25;5023380;28;20052;-60
2021/12/21 05:11:05;;;;;;;9.02;4.32;;;;;;;-7.92;87.47;98088.72;5026896;28;20049;-60
2021/12/21 05:13:36;;;;;;;9.60;4.10;;;;;;;-7.91;87.24;98082.53;5032815;28;20041;-60
2021/12/21 05:16:03;;;;;;;9.40;4.18;;;;;;;-7.98;87.21;98087.41;5045577;28;20037;-58
2021/12/21 05:18:29;;;;;;;9.60;4.13;;;;;;;-7.94;87.00;98088.00;5035773;28;20041;-60
2021/12/21 05:20:56;;;;;;;9.48;4.15;;;;;;;-7.76;87.50;98077.88;5029827;28;20505;-60
2021/12/21 05:23:23;;;;;;;10.82;4.57;;;;;;;-7.67;87.13;98074.53;5029856;28;20047;-60
2021/12/21 05:25:49;;;;;;;13.90;4.57;;;;;;;-7.73;86.49;98075.88;5045784;28;20041;-60
2021/12/21 05:28:17;;;;;;;7.25;4.03;;;;;;;-7.67;86.55;98079.78;5037430;28;20522;-60
2021/12/21 05:30:44;;;;;;;11.25;5.38;;;;;;;-7.77;86.80;98077.06;5037395;28;20041;-60
2021/12/21 05:33:11;;;;;;;7.65;4.43;;;;;;;-7.79;86.76;98078.09;5027562;28;20041;-59
2021/12/21 05:35:38;;;;;;;11.30;5.28;;;;;;;-7.72;86.94;98082.78;5032379;28;20068;-60
2021/12/21 05:38:07;;;;;;;8.10;4.28;;;;;;;-7.63;86.98;98067.25;5020432;28;20041;-60
2021/12/21 05:40:38;;;;;;;12.35;5.65;;;;;;;-7.45;86.59;98071.09;5025073;28;20050;-60
2021/12/21 05:43:07;;;;;;;11.00;5.30;;;;;;;-7.41;86.89;98074.28;5033172;28;20045;-60
2021/12/21 05:45:34;;;;;;;11.68;5.10;;;;;;;-7.29;85.84;98067.25;5023249;28;20303;-59
2021/12/21 05:48:00;;;;;;;10.95;4.45;;;;;;;-7.23;86.12;98079.91;5022195;28;20049;-61
2021/12/21 05:50:27;;;;;;;14.95;6.35;;;;;;;-7.33;85.41;98071.09;5028017;28;20744;-60
2021/12/21 05:52:54;;;;;;;10.88;5.10;;;;;;;-7.35;85.04;98078.25;5026045;28;20049;-61
2021/12/21 05:55:22;;;;;;;10.30;5.40;;;;;;;-7.72;86.26;98074.06;5014471;28;20103;-61
2021/12/21 05:57:49;;;;;;;13.98;5.72;;;;;;;-7.89;85.61;98070.94;5027130;28;20053;-60
2021/12/21 06:00:20;;;;;;;9.77;5.32;;;;;;;-8.07;87.34;98073.19;5044444;28;20055;-60
2021/12/21 06:02:47;;;;;;;;;;;;;;;-8.20;86.79;98070.63;5036379;28;20091;-60
2021/12/21 06:05:14;;;;;;;16.38;6.55;;;;;;;-8.09;88.04;98075.06;5030262;28;19920;-59
2021/12/21 06:07:40;;;;;;;13.10;6.35;;;;;;;-7.88;88.18;98077.88;5023746;28;20048;-60
2021/12/21 06:10:15;;;;;;;14.25;7.00;;;;;;;-7.65;88.42;98077.03;5034473;28;20413;-60
2021/12/21 06:24:24;;;;;;;12.85;5.30;;;;;;;-7.54;86.16;98079.69;5029185;28;20056;-60
2021/12/21 06:26:30;;;;;;;11.25;4.75;;;;;;;-7.47;85.98;98085.31;5034072;28;20075;-59
2021/12/21 06:28:57;;;;;;;15.95;5.63;;;;;;;-7.39;85.75;98074.19;5049037;28;20052;-60
2021/12/21 06:31:24;;;;;;;8.20;4.85;;;;;;;-7.65;85.85;98077.91;5044248;28;20091;-60
2021/12/21 06:33:51;;;;;;;13.13;6.07;;;;;;;-7.62;86.20;98077.66;5028875;28;20056;-59
2021/12/21 06:36:18;;;;;;;10.35;5.50;;;;;;;-7.48;86.19;98081.00;5030875;28;20041;-59
2021/12/21 06:38:44;;;;;;;22.23;9.82;;;;;;;-7.60;85.61;98073.13;5032664;28;20046;-59
2021/12/21 06:41:11;;;;;;;17.90;8.18;;;;;;;-7.71;85.43;98071.31;5023823;28;20053;-59
2021/12/21 06:43:38;;;;;;;199.43;69.00;;;;;;;-7.99;86.05;98068.19;5028566;28;20745;-59
2021/12/21 06:54:14;;;;;;;19.23;8.20;;;;;;;-8.25;86.40;98067.50;5024136;28;20073;-60
2021/12/21 06:56:40;;;;;;;11.63;6.65;;;;;;;-8.29;86.80;98072.16;5040228;28;20528;-60
2021/12/21 06:59:07;;;;;;;25.67;11.30;;;;;;;-8.26;86.51;98071.91;5047910;28;20045;-60
2021/12/21 07:01:37;;;;;;;25.23;7.28;;;;;;;-8.30;86.96;98075.72;5031739;28;20049;-57
2021/12/21 07:04:04;;;;;;;13.30;6.28;;;;;;;-7.91;88.71;98079.88;5027845;28;20037;-58
2021/12/21 07:06:34;;;;;;;12.65;6.35;;;;;;;-7.73;87.21;98077.66;5028217;28;20459;-58
2021/12/21 07:09:13;;;;;;;39.35;19.08;;;;;;;-7.74;86.72;98082.06;5028643;28;20053;-60
2021/12/21 07:11:45;;;;;;;20.08;7.55;;;;;;;-7.84;86.45;98083.72;5026930;28;20041;-60
2021/12/21 07:19:44;;;;;;;16.77;8.57;;;;;;;-7.65;86.80;98100.72;5027615;28;20047;-58
2021/12/21 07:22:12;;;;;;;16.85;9.13;;;;;;;-7.62;87.27;98096.09;5033637;28;20057;-55
2021/12/21 07:24:39;;;;;;;31.17;9.60;;;;;;;-7.47;86.70;98099.31;5026143;28;20045;-59
2021/12/21 07:27:05;;;;;;;10.48;6.13;;;;;;;-7.24;85.79;98101.09;5020306;28;20504;-57
2021/12/21 07:29:32;;;;;;;12.48;7.03;;;;;;;-7.05;84.98;98095.22;5029618;28;20435;-58
2021/12/21 07:31:59;;;;;;;11.63;7.50;;;;;;;-6.98;84.93;98103.44;5035406;28;20053;-57
2021/12/21 07:34:25;;;;;;;13.93;6.55;;;;;;;-7.09;84.12;98104.31;5026328;28;20044;-58
2021/12/21 07:36:52;;;;;;;15.70;7.65;;;;;;;-6.95;83.58;98098.78;5027462;28;20041;-59
2021/12/21 07:39:18;;;;;;;13.63;7.60;;;;;;;-6.96;84.04;98107.63;5027846;28;20809;-59
2021/12/21 07:42:06;;;;;;;14.85;6.00;;;;;;;-6.89;83.57;98110.63;5026628;28;20046;-59
2021/12/21 07:44:33;;;;;;;12.48;7.25;;;;;;;-6.84;83.85;98110.25;5025306;28;20040;-60
2021/12/21 07:46:59;;;;;;;21.17;8.82;;;;;;;-6.88;84.10;98104.41;5029352;28;20033;-58
2021/12/21 07:49:26;;;;;;;15.25;8.75;;;;;;;-6.81;83.94;98105.56;5026337;28;20107;-59
2021/12/21 07:51:53;;;;;;;15.93;7.25;;;;;;;-6.83;83.39;98102.25;5027178;28;20520;-57
2021/12/21 07:54:19;;;;;;;13.63;7.63;;;;;;;-6.84;83.85;98110.25;5027132;28;20049;-59
2021/12/21 07:56:46;;;;;;;20.98;9.98;;;;;;;-6.93;84.46;98102.13;5039829;28;20044;-59
2021/12/21 07:59:13;;;;;;;19.00;8.52;;;;;;;-6.82;83.98;98103.09;5030363;28;20045;-59
2021/12/21 08:01:40;;;;;;;26.45;8.55;;;;;;;-6.80;83.49;98101.16;5026568;28;20042;-59
2021/12/21 08:04:07;;;;;;;16.40;10.00;;;;;;;-6.77;82.26;98105.34;5027038;28;20041;-60
2021/12/21 08:06:36;;;;;;;14.38;8.23;;;;;;;-6.81;82.34;98112.66;5026535;28;20037;-59
2021/12/21 08:09:04;;;;;;;15.48;9.10;;;;;;;-6.83;82.53;98111.94;5027169;28;20052;-59
2021/12/21 08:13:58;;;;;;;16.02;7.55;;;;;;;-6.60;84.12;98117.16;5024583;28;20060;-59
2021/12/21 08:16:25;;;;;;;18.60;8.63;;;;;;;-6.57;83.81;98122.16;5023331;28;20126;-59
2021/12/21 08:18:52;;;;;;;20.05;9.60;;;;;;;-6.69;83.39;98124.00;5023074;28;20049;-58
2021/12/21 08:21:19;;;;;;;20.25;10.30;;;;;;;-6.74;83.85;98116.47;5033354;28;20045;-57
2021/12/21 08:23:46;;;;;;;23.17;12.48;;;;;;;-6.71;84.12;98120.66;5026064;28;20046;-57
2021/12/21 08:26:13;;;;;;;18.08;8.77;;;;;;;-6.73;83.97;98115.50;5023863;28;20087;-58
2021/12/21 08:28:40;;;;;;;16.08;8.52;;;;;;;-6.71;84.26;98118.03;5023830;28;20042;-58
2021/12/21 08:31:13;;;;;;;23.08;10.45;;;;;;;-6.75;84.74;98117.41;5019585;28;20464;-57
2021/12/21 08:33:42;;;;;;;14.30;7.95;;;;;;;-6.81;84.73;98117.91;5013079;28;20052;-58
2021/12/21 08:36:10;;;;;;;16.65;8.38;;;;;;;-6.86;85.27;98131.44;5023885;28;20476;-58
2021/12/21 08:38:40;;;;;;;18.20;7.22;;;;;;;-6.81;85.19;98120.56;5023672;28;20037;-58
2021/12/21 08:41:07;;;;;;;15.02;8.20;;;;;;;-6.77;85.90;98116.72;5037588;28;20044;-58
2021/12/21 08:43:35;;;;;;;20.10;8.90;;;;;;;-6.74;85.97;98118.25;5023140;28;20041;-57
2021/12/21 08:46:02;;;;;;;22.02;8.60;;;;;;;-6.69;86.00;98114.31;5036930;28;20045;-57
2021/12/21 08:48:31;;;;;;;17.75;9.23;;;;;;;-6.31;86.98;98104.22;5027182;28;20037;-56
2021/12/21 08:50:58;;;;;;;18.02;9.13;;;;;;;-6.28;86.07;98113.69;5036035;28;20528;-57
2021/12/21 08:53:25;;;;;;;17.40;8.02;;;;;;;-6.29;84.92;98098.84;5035168;28;20071;-59
2021/12/21 08:55:53;;;;;;;22.95;9.50;;;;;;;-6.29;85.48;98099.69;5025324;28;20060;-59
2021/12/21 08:58:20;;;;;;;21.30;9.57;;;;;;;-6.28;86.62;98100.50;5023637;28;20455;-58
2021/12/21 09:00:47;;;;;;;25.17;10.65;;;;;;;-6.25;86.83;98099.41;5021497;28;20041;-59
2021/12/21 09:03:13;;;;;;;27.30;10.30;;;;;;;-6.18;87.11;98090.88;5025825;28;20060;-59
2021/12/21 09:05:41;;;;;;;20.65;10.73;;;;;;;-6.11;87.08;98093.84;5042591;28;20098;-59
2021/12/21 09:08:10;;;;;;;22.17;11.02;;;;;;;-6.03;87.36;98101.94;5040840;28;20045;-59
2021/12/21 09:10:39;;;;;;;17.58;10.13;;;;;;;-5.91;87.59;98089.50;5036797;28;20041;-59
2021/12/21 09:13:07;;;;;;;19.75;9.48;;;;;;;-5.80;87.56;98093.88;5023554;28;20045;-59
2021/12/21 09:15:33;;;;;;;16.30;8.70;;;;;;;-5.73;87.85;98096.81;5022769;28;20045;-59
2021/12/21 09:18:00;;;;;;;13.07;8.25;;;;;;;-5.68;88.36;98101.72;5024321;28;20670;-60
2021/12/21 09:20:29;;;;;;;17.83;9.45;;;;;;;-5.64;88.51;98093.41;5022995;28;20045;-60
2021/12/21 09:22:56;;;;;;;13.85;9.13;;;;;;;-5.58;88.18;98093.84;5032075;28;20075;-59
2021/12/21 09:25:25;;;;;;;19.45;8.75;;;;;;;-5.47;89.20;98093.75;5028698;28;20034;-59
2021/12/21 09:27:53;;;;;;;18.17;8.90;;;;;;;-5.38;88.94;98095.59;5022868;28;20045;-59
2021/12/21 09:30:21;;;;;;;16.27;8.07;;;;;;;-5.04;89.01;98102.44;5027117;28;20778;-59
2021/12/21 09:32:48;;;;;;;19.10;9.43;;;;;;;-4.86;86.88;98093.84;5028850;28;20071;-59
2021/12/21 09:35:15;;;;;;;15.13;9.00;;;;;;;-4.79;87.54;98094.13;5028113;28;20563;-59
2021/12/21 09:37:44;;;;;;;16.33;9.25;;;;;;;-4.49;86.37;98097.66;5029294;28;20103;-59
2021/12/21 09:40:15;;;;;;;14.85;8.55;;;;;;;-4.53;86.81;98099.75;5045408;28;20048;-58
2021/12/21 09:42:42;;;;;;;17.70;9.43;;;;;;;-4.40;86.95;98098.63;5035310;28;20057;-58
2021/12/21 09:45:10;;;;;;;14.05;8.25;;;;;;;-4.31;86.85;98103.09;5045971;28;20136;-59
2021/12/21 09:47:37;;;;;;;17.77;9.65;;;;;;;-4.13;87.71;98103.22;5034933;28;20456;-59
2021/12/21 09:50:06;;;;;;;17.88;9.95;;;;;;;-3.79;86.92;98104.59;5020869;28;20195;-59
2021/12/21 09:52:33;;;;;;;16.20;10.25;;;;;;;-3.65;85.36;98105.94;5027022;28;20052;-59
2021/12/21 09:55:01;;;;;;;12.10;7.40;;;;;;;-3.53;85.46;98104.00;5027281;28;20624;-59
2021/12/21 09:57:28;;;;;;;14.32;7.68;;;;;;;-3.41;84.66;98113.44;5031298;28;20124;-59
2021/12/21 09:59:55;;;;;;;13.43;6.65;;;;;;;-3.35;84.25;98109.38;5014745;28;20044;-57
2021/12/21 10:02:26;;;;;;;12.35;7.07;;;;;;;-3.34;85.01;98110.19;5027248;28;20045;-60
2021/12/21 10:04:55;;;;;;;13.30;6.20;;;;;;;-3.29;84.18;98106.13;5019998;28;20525;-60
2021/12/21 10:07:23;;;;;;;14.02;5.88;;;;;;;-3.20;84.48;98095.66;5025185;28;20060;-59
2021/12/21 10:09:52;;;;;;;12.65;5.72;;;;;;;-3.17;84.59;98095.38;5024365;28;20091;-59
2021/12/21 10:12:28;;;;;;;12.60;6.18;;;;;;;-3.20;84.34;98088.56;5027080;28;20052;-60
2021/12/21 10:15:06;;;;;;;19.02;6.68;;;;;;;-3.14;84.36;98087.09;5026498;28;20044;-59
2021/12/21 10:17:35;;;;;;;12.82;6.35;;;;;;;-3.13;84.02;98079.03;5028076;28;20048;-59
2021/12/21 10:20:06;;;;;;;11.32;6.40;;;;;;;-3.00;84.16;98083.16;5036775;28;20072;-59
2021/12/21 10:22:33;;;;;;;23.35;11.65;;;;;;;-2.95;83.67;98078.22;5030486;28;20041;-59
2021/12/21 10:25:00;;;;;;;17.80;6.50;;;;;;;-2.94;83.67;98077.28;5036104;28;20045;-59
2021/12/21 10:27:27;;;;;;;12.45;6.18;;;;;;;-2.90;83.79;98069.84;5039329;28;20037;-58
2021/12/21 10:29:55;;;;;;;14.13;5.95;;;;;;;-2.90;83.82;98076.00;5034413;28;20045;-58
2021/12/21 10:32:32;;;;;;;14.25;7.25;;;;;;;-2.81;83.65;98076.06;5026685;28;20532;-57
2021/12/21 10:35:07;;;;;;;14.13;7.30;;;;;;;-2.77;83.32;98082.72;5037034;28;20102;-59
2021/12/21 10:37:37;;;;;;;13.73;6.97;;;;;;;-2.76;83.71;98077.28;5028728;28;20040;-59
2021/12/21 10:40:24;;;;;;;11.73;7.05;;;;;;;-2.61;82.86;98079.44;5037928;28;20055;-59
2021/12/21 10:42:56;;;;;;;15.70;7.22;;;;;;;-2.53;82.33;98076.03;5026221;28;20049;-60
2021/12/21 10:45:30;;;;;;;10.18;6.45;;;;;;;-2.47;82.02;98071.94;5026640;28;20056;-60
2021/12/21 10:47:58;;;;;;;17.70;7.40;;;;;;;-2.43;82.42;98070.66;5037913;28;20091;-61
2021/12/21 10:50:27;;;;;;;14.18;7.43;;;;;;;-2.43;81.74;98060.06;5026417;28;20072;-60
2021/12/21 10:52:57;;;;;;;13.93;6.13;;;;;;;-2.34;81.92;98056.47;5026024;28;20055;-59
2021/12/21 10:55:31;;;;;;;13.90;7.05;;;;;;;-2.31;81.70;98055.34;5024455;28;20622;-59
2021/12/21 10:58:06;;;;;;;12.32;6.05;;;;;;;-2.27;81.35;98054.91;5024781;28;20496;-58
2021/12/21 11:00:36;;;;;;;12.60;6.32;;;;;;;-2.26;81.15;98053.06;5022733;28;20095;-59
2021/12/21 11:03:03;;;;;;;12.90;6.32;;;;;;;-2.19;80.46;98047.97;5025131;28;20041;-60
2021/12/21 11:05:34;;;;;;;10.68;6.47;;;;;;;-2.09;79.82;98049.53;5029160;28;20075;-60
2021/12/21 11:08:14;;;;;;;10.68;5.82;;;;;;;-2.05;80.18;98041.28;5024327;28;20045;-59
2021/12/21 11:10:48;;;;;;;11.43;6.53;;;;;;;-2.02;79.96;98040.97;5024674;28;20042;-59
2021/12/21 11:13:15;;;;;;;15.43;7.07;;;;;;;-1.97;80.30;98041.34;5026086;28;20107;-59
2021/12/21 11:15:48;;;;;;;14.18;7.05;;;;;;;-1.93;80.14;98044.50;5023253;28;20113;-59
2021/12/21 11:18:19;;;;;;;11.90;6.43;;;;;;;-1.87;79.87;98039.44;5024153;28;20041;-59
2021/12/21 11:20:48;;;;;;;13.55;6.80;;;;;;;-1.83;80.01;98043.44;5028213;28;20076;-59
2021/12/21 11:23:18;;;;;;;12.48;6.47;;;;;;;-1.80;79.12;98041.47;5033446;28;20049;-60
2021/12/21 11:25:48;;;;;;;13.07;7.28;;;;;;;-1.83;79.79;98035.47;5038902;28;20045;-61
2021/12/21 11:28:17;;;;;;;14.93;6.57;;;;;;;-1.85;79.99;98033.94;5036803;28;20111;-61
2021/12/21 11:30:44;;;;;;;13.18;7.28;;;;;;;-1.84;79.35;98040.94;5027587;28;20046;-59
2021/12/21 11:33:11;;;;;;;12.80;6.68;;;;;;;-1.81;79.82;98031.84;5025745;28;20441;-61
2021/12/21 11:38:11;;;;;;;12.30;6.97;;;;;;;-1.74;79.44;98028.41;5026106;28;20045;-59
2021/12/21 11:40:41;;;;;;;10.02;6.05;;;;;;;-1.75;79.88;98017.94;5018972;28;20044;-57
2021/12/21 11:43:14;;;;;;;14.60;7.35;;;;;;;-1.71;79.26;98022.78;5045179;28;20045;-59
2021/12/21 11:46:05;;;;;;;16.25;8.05;;;;;;;-1.61;79.33;98019.16;5032970;28;20037;-61
2021/12/21 11:48:41;;;;;;;12.40;6.70;;;;;;;-1.59;78.62;98014.53;5027145;28;20041;-60
2021/12/21 11:51:11;;;;;;;15.65;9.15;;;;;;;-1.59;78.73;98023.34;5025164;28;20052;-62
2021/12/21 11:53:38;;;;;;;11.25;7.38;;;;;;;-1.60;78.58;98024.34;5012056;28;20706;-61
2021/12/21 11:56:06;;;;;;;13.80;6.63;;;;;;;-1.59;78.55;98023.34;5020997;28;20077;-60
2021/12/21 11:58:39;;;;;;;14.13;6.70;;;;;;;-1.51;78.35;98029.69;5031716;28;20094;-60
2021/12/21 12:01:23;;;;;;;12.77;6.85;;;;;;;-1.48;79.17;98018.72;5031623;28;20045;-60
2021/12/21 12:03:54;;;;;;;13.70;6.80;;;;;;;-1.49;78.40;98012.59;5025282;28;20045;-60
2021/12/21 12:06:22;;;;;;;8.82;6.07;;;;;;;-1.47;78.90;98010.59;5040337;28;20092;-59
2021/12/21 12:09:04;;;;;;;11.38;6.63;;;;;;;-1.48;78.19;98011.59;5024159;28;20057;-60
2021/12/21 12:11:36;;;;;;;9.50;5.88;;;;;;;-1.40;78.25;98004.66;5026209;28;20049;-60
2021/12/21 12:14:05;;;;;;;;;;;;;;;-1.36;77.73;98006.03;5024933;28;20048;-59
2021/12/21 12:16:49;;;;;;;9.98;5.18;;;;;;;-1.24;77.15;98003.91;5026406;28;19924;-59
2021/12/21 12:19:20;;;;;;;12.13;5.88;;;;;;;-1.23;76.22;97998.44;5028381;28;20040;-60
2021/12/21 12:22:09;;;;;;;9.95;5.03;;;;;;;-1.15;76.09;98004.78;5033627;28;20760;-60
2021/12/21 12:24:44;;;;;;;9.60;5.03;;;;;;;-1.24;77.12;98012.72;5018334;28;20044;-57
2021/12/21 12:27:17;;;;;;;13.25;6.78;;;;;;;-1.19;76.94;98012.22;5019773;28;20053;-59
2021/12/21 12:29:57;;;;;;;10.30;5.95;;;;;;;-1.26;75.81;98000.59;5032778;28;20052;-60
2021/12/21 12:32:36;;;;;;;14.60;6.38;;;;;;;-1.21;76.36;98009.72;5032139;28;20460;-59
2021/12/21 12:35:25;;;;;;;12.60;6.32;;;;;;;-1.14;76.12;98011.75;5024514;28;20053;-58
2021/12/21 12:38:02;;;;;;;10.82;5.20;;;;;;;-1.15;76.95;98002.13;5013809;28;20456;-58
2021/12/21 12:40:39;;;;;;;9.60;4.80;;;;;;;-1.08;76.60;97992.47;5023597;28;20049;-59
2021/12/21 12:43:19;;;;;;;11.70;5.65;;;;;;;-1.04;76.60;97999.13;5036873;28;20053;-58
2021/12/21 12:45:52;;;;;;;7.32;4.97;;;;;;;-1.05;76.67;98002.78;5011833;28;20045;-59
2021/12/21 12:48:20;;;;;;;33.92;18.33;;;;;;;-1.06;77.03;98001.94;5039152;28;20037;-60